Time;durP1;ratioP1;P1;durP2;ratioP2;P2;SDS_P1;SDS_P2;PMS_P1;PMS_P2;Temp;Humidity;BMP_temperature;BMP_pressure;BME280_temperature;BME280_humidity;BME280_pressure;Samples;Min_cycle;Max_cycle;Signal;HPM_P1;HPM_P2
2021/03/31 00:02:29;;;;;;;60.38;43.28;;;;;;;6.92;84.28;99922.24;2153352;83;21185;-86
2021/03/31 00:05:30;;;;;;;59.67;44.93;;;;;;;6.95;84.31;99921.98;2153873;83;21189;-84
2021/03/31 00:08:32;;;;;;;64.85;43.30;;;;;;;6.95;84.13;99928.48;2153771;83;21217;-85
2021/03/31 00:11:33;;;;;;;61.50;43.48;;;;;;;6.93;83.95;99928.62;2153982;83;21154;-84
2021/03/31 00:14:35;;;;;;;65.50;44.67;;;;;;;6.91;83.90;99929.23;2153770;83;21134;-85
2021/03/31 00:17:36;;;;;;;61.98;44.98;;;;;;;6.94;84.39;99934.17;2153806;83;21189;-85
2021/03/31 00:20:38;;;;;;;54.98;41.28;;;;;;;6.94;84.25;99931.57;2153849;83;21181;-85
2021/03/31 00:23:40;;;;;;;54.60;39.65;;;;;;;6.95;83.92;99932.39;2153830;83;21154;-86
2021/03/31 00:26:41;;;;;;;54.77;41.20;;;;;;;6.91;83.59;99934.44;2153758;83;21138;-86
2021/03/31 00:29:43;;;;;;;55.63;40.45;;;;;;;6.83;83.44;99931.64;2153847;83;21627;-86
2021/03/31 00:32:44;;;;;;;54.48;41.08;;;;;;;6.78;83.63;99929.42;2153997;83;21162;-85
2021/03/31 00:35:46;;;;;;;75.40;46.85;;;;;;;6.72;83.53;99919.98;2153787;83;21190;-85
2021/03/31 00:38:47;;;;;;;75.32;46.63;;;;;;;6.68;83.75;99928.53;2154039;83;21174;-86
2021/03/31 00:41:49;;;;;;;66.53;42.80;;;;;;;6.69;83.78;99925.45;2154163;83;21293;-86
2021/03/31 00:44:51;;;;;;;63.17;43.55;;;;;;;6.64;83.74;99914.58;2154361;83;21375;-83
2021/03/31 00:47:52;;;;;;;67.10;44.42;;;;;;;6.62;83.77;99925.59;2153851;83;21154;-86
2021/03/31 00:50:54;;;;;;;72.45;48.17;;;;;;;6.60;83.88;99917.91;2154066;83;21689;-86
2021/03/31 00:53:55;;;;;;;56.50;39.15;;;;;;;6.57;83.73;99914.23;2153643;83;21610;-85
2021/03/31 00:56:57;;;;;;;57.67;37.42;;;;;;;6.53;83.67;99912.38;2153714;83;21602;-85
2021/03/31 00:59:58;;;;;;;65.00;40.70;;;;;;;6.52;83.67;99912.50;2154103;83;21312;-84
2021/03/31 01:03:00;;;;;;;56.55;39.58;;;;;;;6.47;83.62;99908.95;2154151;83;21190;-84
2021/03/31 01:06:02;;;;;;;55.15;39.88;;;;;;;6.44;83.61;99914.42;2153995;83;21178;-85
2021/03/31 01:09:03;;;;;;;60.67;41.48;;;;;;;6.39;83.62;99908.75;2153838;83;21614;-84
2021/03/31 01:12:05;;;;;;;54.98;36.98;;;;;;;6.33;83.72;99906.66;2154049;83;21218;-85
2021/03/31 01:15:06;;;;;;;50.30;37.63;;;;;;;6.32;83.80;99908.09;2153735;83;21173;-84
2021/03/31 01:18:08;;;;;;;57.40;39.60;;;;;;;6.32;83.99;99912.81;2153942;83;21154;-85
2021/03/31 01:21:11;;;;;;;63.42;42.17;;;;;;;6.28;83.88;99913.52;2154096;83;21300;-85
2021/03/31 01:24:13;;;;;;;48.00;37.10;;;;;;;6.25;83.95;99909.05;2153794;83;21155;-85
2021/03/31 01:27:14;;;;;;;43.33;32.90;;;;;;;6.19;84.25;99910.34;2152485;83;21768;-84
2021/03/31 01:30:16;;;;;;;52.20;33.33;;;;;;;6.20;84.21;99900.77;2144093;83;21135;-85
2021/03/31 01:33:17;;;;;;;65.35;34.18;;;;;;;6.23;84.29;99904.45;2144349;83;21316;-85
2021/03/31 01:36:19;;;;;;;59.05;35.88;;;;;;;6.20;84.12;99902.89;2144309;83;21728;-85
2021/03/31 01:39:20;;;;;;;65.32;41.33;;;;;;;;;;2144083;83;21348;-84
2021/03/31 01:42:22;;;;;;;68.02;42.15;;;;;;;6.12;84.36;99900.55;2144306;83;21301;-86
2021/03/31 01:45:23;;;;;;;65.00;40.05;;;;;;;6.12;84.45;99909.66;2144474;83;21166;-85
2021/03/31 01:48:25;;;;;;;48.83;36.20;;;;;;;6.05;84.60;99893.73;2144303;83;21305;-85
2021/03/31 01:51:26;;;;;;;50.25;35.10;;;;;;;6.05;84.68;99904.14;2143998;83;21753;-85
2021/03/31 01:54:28;;;;;;;44.98;32.90;;;;;;;6.07;84.77;99904.84;2144337;83;21855;-86
2021/03/31 01:57:29;;;;;;;43.35;32.30;;;;;;;6.02;84.69;99895.26;2144474;83;21296;-87
2021/03/31 02:00:31;;;;;;;33.25;27.80;;;;;;;5.95;84.49;99890.22;2144490;83;21169;-85
2021/03/31 02:03:33;;;;;;;36.08;27.98;;;;;;;5.93;84.40;99889.02;2144188;83;21777;-85
2021/03/31 02:06:34;;;;;;;39.15;30.92;;;;;;;5.91;84.18;99884.89;2144358;83;21338;-84
2021/03/31 02:09:36;;;;;;;45.65;32.48;;;;;;;5.86;84.24;99883.94;2144400;83;21147;-86
2021/03/31 02:12:37;;;;;;;58.38;39.65;;;;;;;5.82;84.36;99882.51;2145468;83;21289;-86
2021/03/31 02:15:39;;;;;;;48.02;36.05;;;;;;;5.77;84.85;99883.84;2193701;77;21299;-86
2021/03/31 02:18:40;;;;;;;55.52;38.40;;;;;;;5.76;85.26;99876.95;2259600;79;21325;-86
2021/03/31 02:21:42;;;;;;;60.70;35.23;;;;;;;5.68;84.92;99873.69;2259569;79;21312;-87
2021/03/31 02:24:44;;;;;;;86.45;44.95;;;;;;;5.53;84.74;99869.67;2260580;79;21175;-87
2021/03/31 02:27:46;;;;;;;68.05;43.85;;;;;;;5.42;84.84;99870.52;2261362;79;21333;-84
2021/03/31 02:30:47;;;;;;;69.22;44.75;;;;;;;5.37;85.21;99873.45;2262622;79;21144;-83
2021/03/31 02:33:49;;;;;;;70.42;44.77;;;;;;;5.35;85.30;99872.75;2263146;79;21127;-84
2021/03/31 02:36:50;;;;;;;88.37;47.53;;;;;;;5.30;85.42;99868.84;2263208;79;21168;-85
2021/03/31 02:39:52;;;;;;;88.27;47.75;;;;;;;5.31;85.61;99870.52;2263312;79;21313;-85
2021/03/31 02:42:53;;;;;;;79.27;47.27;;;;;;;5.36;85.89;99868.38;2261152;79;21170;-88
2021/03/31 02:45:55;;;;;;;79.07;49.88;;;;;;;5.36;85.95;99874.39;2259938;79;21139;-88
2021/03/31 02:48:57;;;;;;;77.58;47.23;;;;;;;5.38;85.98;99875.58;2259942;79;21131;-87
2021/03/31 02:51:58;;;;;;;72.47;46.68;;;;;;;5.37;85.66;99874.75;2259361;79;21297;-82
2021/03/31 02:55:00;;;;;;;77.03;46.00;;;;;;;5.37;85.45;99871.33;2259068;79;21159;-83
2021/03/31 02:58:01;;;;;;;77.72;45.50;;;;;;;5.42;85.59;99864.02;2236080;79;21136;-84
2021/03/31 03:01:03;;;;;;;79.22;46.77;;;;;;;5.49;85.62;99863.08;2259287;79;21246;-83
2021/03/31 03:04:05;;;;;;;84.28;51.15;;;;;;;5.50;85.33;99859.06;2259385;79;21262;-82
2021/03/31 03:07:06;;;;;;;65.45;46.05;;;;;;;5.48;85.28;99857.03;2259509;79;21144;-82
2021/03/31 03:10:08;;;;;;;64.10;45.12;;;;;;;5.49;85.23;99856.11;2259513;79;21305;-83
2021/03/31 03:13:10;;;;;;;67.62;44.85;;;;;;;5.51;85.20;99852.09;2259407;79;21159;-82
2021/03/31 03:16:11;;;;;;;80.30;45.80;;;;;;;5.54;85.33;99860.45;2259020;79;21179;-83
2021/03/31 03:19:13;;;;;;;92.92;49.15;;;;;;;5.55;85.32;99860.81;2258778;79;21127;-83
2021/03/31 03:22:15;;;;;;;76.50;45.12;;;;;;;5.51;85.12;99855.52;2258774;79;21266;-83
2021/03/31 03:25:16;;;;;;;66.22;45.58;;;;;;;5.45;84.90;99855.98;2258972;79;21302;-82
2021/03/31 03:28:18;;;;;;;145.68;67.97;;;;;;;5.37;85.02;99858.34;2258887;79;21750;-82
2021/03/31 03:31:20;;;;;;;93.97;50.83;;;;;;;5.32;84.94;99858.71;2258920;79;21326;-82
2021/03/31 03:34:22;;;;;;;102.35;55.88;;;;;;;5.29;85.20;99855.50;2258812;79;21180;-82
2021/03/31 03:37:23;;;;;;;149.45;65.10;;;;;;;5.33;85.48;99856.94;2258657;79;21309;-83
2021/03/31 03:40:25;;;;;;;232.40;92.22;;;;;;;5.35;85.49;99862.36;2258957;79;21273;-83
2021/03/31 03:43:26;;;;;;;321.48;113.85;;;;;;;5.40;85.50;99867.21;2259050;79;21170;-83
2021/03/31 03:46:28;;;;;;;317.52;105.60;;;;;;;5.31;85.09;99868.75;2259297;79;21167;-83
2021/03/31 03:49:30;;;;;;;291.75;97.50;;;;;;;5.33;85.53;99870.75;2258768;79;21325;-84
2021/03/31 03:52:31;;;;;;;300.27;97.37;;;;;;;5.43;85.69;99868.27;2258792;79;21350;-83
2021/03/31 03:55:33;;;;;;;251.98;93.00;;;;;;;5.52;85.82;99870.63;2261763;79;21285;-84
2021/03/31 03:58:34;;;;;;;163.15;73.80;;;;;;;5.61;85.76;99864.71;2258482;79;21310;-83
2021/03/31 04:01:36;;;;;;;113.95;57.25;;;;;;;5.64;85.55;99866.59;2259067;79;21289;-82
2021/03/31 04:04:37;;;;;;;90.83;51.68;;;;;;;5.68;85.32;99869.31;2259006;79;21306;-82
2021/03/31 04:07:39;;;;;;;254.95;91.10;;;;;;;5.54;84.95;99868.73;2259028;79;21274;-83
2021/03/31 04:10:40;;;;;;;276.58;103.67;;;;;;;5.52;85.10;99861.53;2258732;79;21246;-84
2021/03/31 04:13:42;;;;;;;294.82;112.20;;;;;;;5.50;85.05;99856.46;2258688;79;21776;-83
2021/03/31 04:16:44;;;;;;;231.45;94.83;;;;;;;5.46;84.91;99859.40;2244645;79;21299;-83
2021/03/31 04:19:46;;;;;;;234.25;99.28;;;;;;;5.47;84.87;99864.47;2226640;80;21307;-84
2021/03/31 04:22:47;;;;;;;141.50;61.90;;;;;;;5.41;84.78;99870.16;2226542;80;21839;-83
2021/03/31 04:25:49;;;;;;;92.15;50.28;;;;;;;5.30;84.74;99860.61;2227538;80;21264;-83
2021/03/31 04:28:50;;;;;;;210.48;88.47;;;;;;;5.33;85.21;99863.43;2263003;79;21288;-83
2021/03/31 04:31:52;;;;;;;219.82;88.50;;;;;;;5.34;85.00;99871.57;2263211;79;21173;-84
2021/03/31 04:34:53;;;;;;;142.75;64.92;;;;;;;5.38;84.94;99862.58;2263064;79;21161;-82
2021/03/31 04:37:55;;;;;;;140.97;64.72;;;;;;;5.33;84.76;99862.95;2263049;79;21271;-82
2021/03/31 04:40:57;;;;;;;195.20;78.52;;;;;;;5.38;85.20;99850.89;2263363;79;21199;-82
2021/03/31 04:43:58;;;;;;;266.68;98.55;;;;;;;5.36;84.81;99856.69;2262991;79;21129;-82
2021/03/31 04:47:00;;;;;;;141.15;64.37;;;;;;;5.45;85.12;99860.34;2263318;79;21323;-83
2021/03/31 04:50:02;;;;;;;80.90;46.77;;;;;;;5.56;84.97;99864.23;2262961;79;21170;-83
2021/03/31 04:53:03;;;;;;;51.15;39.13;;;;;;;5.64;84.85;99859.27;2263453;79;21137;-84
2021/03/31 04:56:06;;;;;;;51.40;38.92;;;;;;;5.83;84.91;99863.84;2263203;79;21723;-84
2021/03/31 04:59:08;;;;;;;47.10;38.92;;;;;;;6.06;84.94;99852.95;2264119;79;21158;-86
2021/03/31 05:02:10;;;;;;;38.65;34.50;;;;;;;6.29;84.79;99846.71;2233503;79;21741;-84
2021/03/31 05:05:11;;;;;;;42.50;36.65;;;;;;;6.40;84.39;99832.83;2263265;79;21255;-87
2021/03/31 05:08:13;;;;;;;40.48;36.03;;;;;;;6.46;84.21;99838.36;2264023;79;21287;-87
2021/03/31 05:11:14;;;;;;;41.18;33.88;;;;;;;6.64;84.27;99832.59;2264522;79;21145;-84
2021/03/31 05:14:16;;;;;;;48.48;38.13;;;;;;;6.82;83.92;99838.39;2264795;79;21305;-86
2021/03/31 05:17:18;;;;;;;53.23;41.95;;;;;;;6.93;84.02;99845.78;2284856;77;21840;-87
2021/03/31 05:20:19;;;;;;;63.08;43.68;;;;;;;7.12;84.40;99844.09;2300769;77;21099;-85
2021/03/31 05:23:21;;;;;;;136.35;70.87;;;;;;;7.34;83.67;99849.63;2300659;77;21677;-85
2021/03/31 05:26:22;;;;;;;162.82;80.38;;;;;;;7.47;82.96;99848.56;2300860;77;21155;-85
2021/03/31 05:29:24;;;;;;;176.32;88.70;;;;;;;7.68;83.60;99855.37;2300462;77;21274;-84
2021/03/31 05:32:25;;;;;;;182.02;89.30;;;;;;;8.01;83.58;99846.84;2300865;77;21254;-88
2021/03/31 05:35:27;;;;;;;104.72;64.47;;;;;;;8.24;82.85;99855.25;2301947;77;21574;-85
2021/03/31 05:38:28;;;;;;;108.27;65.55;;;;;;;8.38;82.91;99852.72;2300990;77;21733;-88
2021/03/31 05:41:30;;;;;;;93.47;56.80;;;;;;;8.58;82.84;99858.27;2301169;77;21162;-88
2021/03/31 05:45:05;;;;;;;;;;;;;;;;;;;;;
2021/03/31 05:59:20;;;;;;;84.47;55.08;;;;;;;9.44;81.66;99841.21;2310733;77;23035;-88
2021/03/31 06:02:22;;;;;;;73.97;48.20;;;;;;;9.51;82.03;99847.48;2280691;78;21268;-91
2021/03/31 06:05:23;;;;;;;69.75;47.58;;;;;;;9.66;81.90;99842.94;2279829;78;21271;-90
2021/03/31 06:08:25;;;;;;;68.37;46.95;;;;;;;9.74;81.98;99838.78;2279843;77;21272;-90
2021/03/31 06:11:29;;;;;;;53.23;39.83;;;;;;;9.89;81.94;99842.06;2280072;77;21244;-90
2021/03/31 06:14:30;;;;;;;48.75;37.90;;;;;;;10.03;82.18;99839.41;2279950;78;21687;-91
2021/03/31 06:17:32;;;;;;;49.83;41.95;;;;;;;10.11;82.00;99834.25;2280296;78;21144;-91
2021/03/31 06:20:34;;;;;;;47.95;37.80;;;;;;;10.22;82.40;99841.09;2279549;78;21156;-88
2021/03/31 06:23:52;;;;;;;42.60;37.88;;;;;;;10.40;82.26;99839.77;2279818;77;21716;-91
2021/03/31 06:26:51;;;;;;;44.50;37.03;;;;;;;10.57;82.03;99835.49;2244635;78;21567;-90
2021/03/31 06:30:04;;;;;;;48.48;40.17;;;;;;;10.72;82.25;99832.67;2279343;78;21129;-90
2021/03/31 06:33:08;;;;;;;50.33;39.90;;;;;;;10.92;82.33;99835.91;2279595;78;21159;-89
2021/03/31 06:36:13;;;;;;;47.85;39.78;;;;;;;11.07;82.05;99833.87;2279944;78;21311;-90
2021/03/31 06:39:15;;;;;;;50.63;37.50;;;;;;;11.25;82.07;99838.23;2279901;78;21248;-92
2021/03/31 06:42:19;;;;;;;45.33;38.00;;;;;;;11.38;81.90;99827.63;2280364;78;21268;-91
2021/03/31 06:45:21;;;;;;;50.52;39.63;;;;;;;11.59;81.88;99825.08;2280286;78;21790;-92
2021/03/31 06:48:26;;;;;;;53.58;44.85;;;;;;;11.79;82.04;99821.69;2280649;77;21284;-92
2021/03/31 06:51:26;;;;;;;54.67;46.05;;;;;;;12.02;81.95;99816.20;2282170;77;21260;-92
2021/03/31 06:54:28;;;;;;;51.70;41.08;;;;;;;12.18;81.55;99812.29;2281399;78;21300;-89
2021/03/31 06:57:30;;;;;;;47.38;36.15;;;;;;;12.37;81.81;99812.95;2279639;77;21579;-89
2021/03/31 07:00:31;;;;;;;44.10;34.43;;;;;;;12.62;81.90;99805.86;2276806;78;21281;-90
2021/03/31 07:03:33;;;;;;;44.95;34.95;;;;;;;12.85;81.72;99809.95;2277872;78;21244;-92
2021/03/31 07:06:34;;;;;;;46.40;35.88;;;;;;;13.03;81.51;99812.69;2277663;78;21724;-92
2021/03/31 07:09:36;;;;;;;47.58;35.30;;;;;;;13.23;81.50;99806.58;2277159;78;21319;-91
2021/03/31 07:12:40;;;;;;;44.00;33.13;;;;;;;13.41;81.13;99800.26;2270813;78;21149;-89
2021/03/31 07:15:45;;;;;;;41.85;31.93;;;;;;;13.58;81.04;99796.56;2268662;78;21122;-89
2021/03/31 07:19:14;;;;;;;;;;;;;;;;;;;;;
2021/03/31 07:22:09;;;;;;;40.83;28.87;;;;;;;13.98;80.46;99788.09;2269954;78;21264;-90
2021/03/31 07:25:23;;;;;;;39.50;30.37;;;;;;;14.20;79.95;99796.00;2276507;78;21257;-89
2021/03/31 07:28:26;;;;;;;38.92;29.82;;;;;;;14.39;79.68;99801.78;2276603;78;21546;-88
2021/03/31 07:31:29;;;;;;;37.78;30.75;;;;;;;14.59;79.28;99802.95;2275968;78;21141;-88
2021/03/31 07:34:34;;;;;;;39.65;30.40;;;;;;;14.75;78.71;99803.30;2276499;78;21276;-86
2021/03/31 07:37:37;;;;;;;39.58;28.12;;;;;;;14.88;78.47;99800.03;2275619;78;21312;-83
2021/03/31 07:40:39;;;;;;;37.58;28.98;;;;;;;15.00;77.50;99806.01;2276464;78;21705;-92
2021/03/31 07:43:40;;;;;;;43.33;31.50;;;;;;;15.16;77.75;99797.58;2275570;78;21308;-88
2021/03/31 07:46:46;;;;;;;35.90;29.42;;;;;;;15.32;77.67;99798.20;2275590;78;21150;-88
2021/03/31 07:49:50;;;;;;;42.08;30.48;;;;;;;15.49;77.46;99794.05;2275891;78;21284;-85
2021/03/31 07:53:07;;;;;;;;;;;;;;;;;;;;;
2021/03/31 07:56:31;;;;;;;;;;;;;;;;;;;;;
2021/03/31 07:59:45;;;;;;;34.78;26.42;;;;;;;15.86;75.79;99787.79;2187070;80;22965;-87
2021/03/31 08:06:21;;;;;;;31.42;23.83;;;;;;;16.12;75.71;99778.80;2167895;82;27990;-86
2021/03/31 08:09:27;;;;;;;30.52;25.08;;;;;;;16.18;74.23;99776.73;2141217;83;21245;-87
2021/03/31 08:12:28;;;;;;;36.68;27.58;;;;;;;16.27;74.64;99780.54;2141382;83;21738;-82
2021/03/31 08:15:29;;;;;;;30.05;25.23;;;;;;;16.35;73.67;99775.13;2141376;83;21654;-86
2021/03/31 08:18:31;;;;;;;33.10;25.77;;;;;;;16.41;73.48;99776.50;2140693;83;21309;-85
2021/03/31 08:21:34;;;;;;;34.90;26.35;;;;;;;16.50;73.36;99779.32;2140425;83;21198;-87
2021/03/31 08:24:39;;;;;;;35.28;26.20;;;;;;;16.58;73.15;99779.69;2140309;83;21293;-84
2021/03/31 08:27:40;;;;;;;28.77;22.65;;;;;;;16.66;72.85;99778.73;2140369;83;21304;-87
2021/03/31 08:30:42;;;;;;;28.20;21.15;;;;;;;16.75;71.19;99780.25;2140545;83;21247;-82
2021/03/31 08:33:44;;;;;;;25.30;20.62;;;;;;;16.81;70.89;99775.48;2140639;83;21201;-85
2021/03/31 08:36:45;;;;;;;25.32;21.27;;;;;;;16.87;70.49;99770.75;2140678;83;21178;-82
2021/03/31 08:39:47;;;;;;;27.45;22.05;;;;;;;16.95;70.23;99766.63;2140174;83;21159;-85
2021/03/31 08:42:49;;;;;;;29.57;21.68;;;;;;;17.03;69.64;99769.12;2190723;81;21165;-82
2021/03/31 08:45:54;;;;;;;28.32;22.40;;;;;;;17.11;69.81;99771.30;2200388;81;21193;-83
2021/03/31 08:48:55;;;;;;;33.13;23.07;;;;;;;17.19;69.58;99774.60;2211410;79;21160;-84
2021/03/31 08:51:56;;;;;;;27.20;21.55;;;;;;;17.27;68.83;99767.79;2226945;80;21172;-83
2021/03/31 08:54:58;;;;;;;25.70;20.62;;;;;;;17.36;68.70;99764.47;2227820;80;21309;-85
2021/03/31 08:58:00;;;;;;;28.15;21.95;;;;;;;17.44;67.71;99768.78;2228017;80;21175;-81
2021/03/31 09:01:01;;;;;;;27.05;22.00;;;;;;;17.46;67.90;99766.74;2228463;80;21306;-79
2021/03/31 09:04:03;;;;;;;27.30;22.30;;;;;;;17.53;67.86;99768.91;2229117;80;21156;-77
2021/03/31 09:07:05;;;;;;;28.23;21.20;;;;;;;17.64;68.05;99766.50;2227949;80;21155;-77
2021/03/31 09:10:07;;;;;;;25.80;20.62;;;;;;;17.74;67.31;99760.88;2226522;80;21128;-83
2021/03/31 09:13:08;;;;;;;28.05;20.52;;;;;;;17.84;66.66;99764.46;2225381;80;21598;-83
2021/03/31 09:16:13;;;;;;;26.23;20.77;;;;;;;17.88;67.07;99751.11;2224867;80;21326;-84
2021/03/31 09:19:13;;;;;;;24.70;19.05;;;;;;;17.98;66.50;99752.03;2224486;80;21192;-84
2021/03/31 09:22:15;;;;;;;26.95;17.20;;;;;;;18.04;66.03;99742.77;2225044;80;21274;-83
2021/03/31 09:25:19;;;;;;;24.15;17.05;;;;;;;18.11;64.10;99743.60;2224533;80;21279;-87
2021/03/31 09:28:21;;;;;;;23.42;16.10;;;;;;;18.13;64.72;99742.06;2224865;80;21296;-85
2021/03/31 09:31:25;;;;;;;22.98;15.65;;;;;;;18.19;64.03;99742.05;2224797;80;21278;-87
2021/03/31 09:34:28;;;;;;;17.42;14.35;;;;;;;18.30;64.35;99735.85;2224630;80;21302;-86
2021/03/31 09:37:29;;;;;;;17.92;14.78;;;;;;;18.40;64.29;99738.91;2224962;80;21318;-83
2021/03/31 09:40:32;;;;;;;20.92;14.98;;;;;;;18.50;64.17;99733.99;2224693;80;21156;-85
2021/03/31 09:43:34;;;;;;;20.23;15.10;;;;;;;18.57;63.38;99732.16;2224387;80;21326;-86
2021/03/31 09:46:38;;;;;;;17.15;15.10;;;;;;;18.62;62.07;99727.55;2224898;80;21306;-86
2021/03/31 09:49:43;;;;;;;23.18;16.25;;;;;;;18.64;62.40;99728.14;2225177;80;21294;-81
2021/03/31 09:52:45;;;;;;;19.17;12.75;;;;;;;18.72;62.73;99730.09;2224899;80;21295;-86
2021/03/31 09:55:46;;;;;;;20.23;14.40;;;;;;;18.79;60.57;99728.77;2225406;80;21734;-88
2021/03/31 09:58:48;;;;;;;23.55;14.23;;;;;;;18.83;61.83;99717.21;2225455;80;21334;-82
2021/03/31 10:01:52;;;;;;;17.35;13.60;;;;;;;18.87;61.20;99708.64;2224360;80;21310;-82
2021/03/31 10:04:53;;;;;;;16.45;12.95;;;;;;;18.95;61.34;99706.27;2225542;80;21148;-85
2021/03/31 10:07:55;;;;;;;18.98;13.18;;;;;;;19.10;61.09;99702.83;2227070;80;21273;-87
2021/03/31 10:10:58;;;;;;;14.43;11.57;;;;;;;19.22;61.55;99697.17;2226998;80;21148;-81
2021/03/31 10:14:01;;;;;;;16.97;13.22;;;;;;;19.34;60.62;99695.98;2227474;80;21298;-84
2021/03/31 10:17:04;;;;;;;12.23;9.70;;;;;;;19.44;60.44;99696.84;2227310;80;21314;-83
2021/03/31 10:20:06;;;;;;;14.03;10.70;;;;;;;19.52;58.71;99692.61;2227564;80;21259;-82
2021/03/31 10:23:08;;;;;;;11.53;9.08;;;;;;;19.58;58.79;99684.64;2228196;80;21662;-81
2021/03/31 10:26:10;;;;;;;11.12;9.13;;;;;;;19.67;58.56;99683.88;2227014;80;21614;-85
2021/03/31 10:29:11;;;;;;;14.58;9.80;;;;;;;19.76;58.06;99680.44;2226754;80;21132;-84
2021/03/31 10:32:15;;;;;;;13.70;10.50;;;;;;;19.80;57.61;99676.31;2226345;80;21595;-84
2021/03/31 10:35:17;;;;;;;12.33;8.43;;;;;;;19.85;57.53;99675.16;2226464;80;21718;-85
2021/03/31 10:57:22;;;;;;;;;;;;;;;;;;;;;
2021/03/31 11:00:37;;;;;;;;;;;;;;;;;;;;;
2021/03/31 11:15:15;;;;;;;11.60;8.20;;;;;;;20.72;53.98;99633.41;2330612;76;28088;-85
2021/03/31 11:18:22;;;;;;;6.90;6.08;;;;;;;20.98;53.70;99629.61;2315639;77;21285;-85
2021/03/31 11:28:03;;;;;;;10.08;7.03;;;;;;;21.21;53.02;99604.42;2315191;77;21234;-83
2021/03/31 11:31:04;;;;;;;8.80;6.20;;;;;;;21.26;52.57;99601.06;2315296;77;21294;-85
2021/03/31 11:34:08;;;;;;;9.93;6.67;;;;;;;21.25;51.76;99602.91;2315628;77;21131;-84
2021/03/31 11:37:10;;;;;;;7.62;6.55;;;;;;;21.25;52.87;99604.24;2315386;77;21136;-84
2021/03/31 11:40:26;;;;;;;;;;;;;;;;;;;;;
2021/03/31 11:43:31;;;;;;;8.33;6.55;;;;;;;21.23;51.55;99588.20;2216038;79;22393;-84
2021/03/31 11:46:36;;;;;;;10.43;5.78;;;;;;;21.21;51.72;99584.45;2133632;83;21226;-83
2021/03/31 11:49:42;;;;;;;7.45;6.55;;;;;;;21.25;51.36;99580.80;2033055;87;21355;-84
2021/03/31 11:52:54;;;;;;;10.05;5.58;;;;;;;21.38;51.54;99579.28;2259456;79;22823;-83
2021/03/31 11:55:56;;;;;;;7.67;6.00;;;;;;;21.39;51.46;99579.56;2226523;80;21629;-82
2021/03/31 11:58:57;;;;;;;7.75;5.47;;;;;;;21.44;51.34;99576.23;2226292;80;21310;-84
2021/03/31 12:01:59;;;;;;;8.03;6.33;;;;;;;21.45;50.75;99570.67;2225820;80;21143;-84
2021/03/31 12:05:00;;;;;;;12.10;6.08;;;;;;;21.44;50.66;99570.38;2226708;80;21167;-84
2021/03/31 12:08:02;;;;;;;6.72;5.67;;;;;;;21.38;49.78;99566.48;2226268;80;21190;-84
2021/03/31 12:11:03;;;;;;;8.38;6.45;;;;;;;21.26;48.31;99558.45;2226575;80;21714;-84
2021/03/31 12:14:05;;;;;;;9.98;5.75;;;;;;;21.20;49.35;99552.17;2226448;80;21670;-84
2021/03/31 12:17:07;;;;;;;10.03;6.45;;;;;;;21.16;49.23;99542.22;2226591;80;21150;-84
2021/03/31 12:20:09;;;;;;;10.90;6.40;;;;;;;21.13;48.66;99539.50;2226600;80;21119;-83
2021/03/31 12:23:10;;;;;;;12.00;6.22;;;;;;;21.10;48.91;99545.78;2226513;80;21325;-82
2021/03/31 12:26:13;;;;;;;7.30;5.87;;;;;;;21.08;48.64;99542.02;2226377;80;21657;-83
2021/03/31 12:29:15;;;;;;;8.43;5.25;;;;;;;21.08;49.11;99538.03;2226560;80;21154;-84
2021/03/31 12:32:16;;;;;;;6.97;5.60;;;;;;;21.09;48.48;99534.32;2195609;80;21305;-84
2021/03/31 12:35:18;;;;;;;8.23;5.75;;;;;;;21.11;48.30;99528.24;2226760;80;21178;-87
2021/03/31 12:38:21;;;;;;;5.83;5.25;;;;;;;21.12;48.62;99523.23;2227446;80;21171;-83
2021/03/31 12:41:22;;;;;;;7.47;5.42;;;;;;;21.13;48.74;99520.86;2226055;80;21159;-84
2021/03/31 12:44:24;;;;;;;12.75;6.28;;;;;;;21.14;48.75;99511.02;2226287;80;21781;-85
2021/03/31 12:47:25;;;;;;;8.38;5.90;;;;;;;21.13;48.50;99508.88;2226244;80;21313;-85
2021/03/31 12:50:27;;;;;;;10.95;7.05;;;;;;;21.07;48.25;99497.80;2224358;80;21290;-86
2021/03/31 12:53:32;;;;;;;10.28;5.87;;;;;;;21.06;47.93;99490.86;2209446;81;21120;-85
2021/03/31 12:56:33;;;;;;;7.17;5.33;;;;;;;21.06;47.75;99492.71;2209381;80;21151;-86
2021/03/31 12:59:34;;;;;;;8.68;5.92;;;;;;;21.07;47.54;99491.67;2209775;81;21325;-85
2021/03/31 13:02:36;;;;;;;12.58;9.13;;;;;;;21.09;48.10;99481.08;2209119;81;21766;-85
2021/03/31 13:05:38;;;;;;;11.00;8.50;;;;;;;21.19;48.57;99480.51;2209372;81;21469;-86
2021/03/31 13:08:40;;;;;;;15.65;8.20;;;;;;;21.26;48.35;99480.73;2209049;81;21152;-84
2021/03/31 13:11:43;;;;;;;15.23;9.80;;;;;;;21.33;48.50;99474.48;2208826;81;21305;-85
2021/03/31 13:15:12;;;;;;;12.73;8.28;;;;;;;21.32;48.39;99464.36;2208700;81;21321;-86
2021/03/31 13:18:07;;;;;;;11.93;6.53;;;;;;;21.31;47.06;99462.73;2205289;80;21308;-85
2021/03/31 13:24:32;;;;;;;9.08;7.33;;;;;;;21.16;45.69;99459.16;2208812;81;21643;-86
2021/03/31 13:27:54;;;;;;;8.98;6.53;;;;;;;21.09;46.82;99457.63;2209123;81;21321;-86
2021/03/31 13:30:53;;;;;;;10.32;7.50;;;;;;;21.07;46.72;99449.88;2206955;80;21326;-89
2021/03/31 13:33:58;;;;;;;10.10;7.65;;;;;;;21.04;46.04;99446.88;2208556;81;21286;-86
2021/03/31 13:37:01;;;;;;;12.60;8.98;;;;;;;21.00;45.55;99444.66;2208282;81;21603;-84
2021/03/31 13:40:03;;;;;;;11.83;9.00;;;;;;;20.96;45.68;99440.03;2209131;81;21317;-85
2021/03/31 13:43:05;;;;;;;13.78;8.08;;;;;;;20.94;46.10;99435.47;2209178;81;21278;-86
2021/03/31 13:46:06;;;;;;;13.13;7.92;;;;;;;20.92;44.75;99431.68;2208684;81;21318;-85
2021/03/31 13:49:14;;;;;;;9.50;7.58;;;;;;;20.92;45.05;99424.22;2208543;81;21346;-86
2021/03/31 13:52:19;;;;;;;12.55;7.37;;;;;;;20.91;43.59;99424.73;2208713;81;21124;-85
2021/03/31 13:55:23;;;;;;;7.12;5.47;;;;;;;20.87;43.18;99430.77;2208646;81;21290;-86
2021/03/31 13:58:24;;;;;;;7.83;6.53;;;;;;;20.82;44.26;99418.12;2209754;80;21148;-83
2021/03/31 14:01:25;;;;;;;9.85;6.08;;;;;;;20.80;44.28;99420.73;2208999;81;21832;-89
2021/03/31 14:04:27;;;;;;;8.10;6.28;;;;;;;20.79;44.08;99411.94;2208802;81;21594;-86
2021/03/31 14:07:28;;;;;;;7.05;6.08;;;;;;;20.76;44.64;99411.08;2209597;81;21290;-85
2021/03/31 14:10:30;;;;;;;7.15;5.83;;;;;;;20.69;44.72;99409.03;2209713;81;21302;-87
2021/03/31 14:13:32;;;;;;;16.50;6.75;;;;;;;20.61;44.50;99408.03;2208674;81;21183;-86
2021/03/31 14:16:34;;;;;;;5.20;4.67;;;;;;;20.52;44.95;99403.55;2209001;81;21310;-85
2021/03/31 14:19:38;;;;;;;4.90;4.40;;;;;;;20.44;44.36;99403.87;2208681;81;21286;-85
2021/03/31 14:22:39;;;;;;;7.03;5.42;;;;;;;20.35;44.18;99398.03;2208826;81;21304;-87
2021/03/31 14:25:41;;;;;;;9.65;5.45;;;;;;;20.31;43.94;99400.86;2209052;81;21306;-87
2021/03/31 14:28:42;;;;;;;9.80;5.00;;;;;;;20.28;43.85;99395.97;2208978;81;21778;-88
2021/03/31 14:31:44;;;;;;;7.17;4.35;;;;;;;20.30;44.06;99391.75;2209080;81;21152;-81
2021/03/31 14:34:45;;;;;;;8.00;4.45;;;;;;;20.33;43.83;99391.32;2208743;81;21294;-85
2021/03/31 14:37:47;;;;;;;8.03;5.58;;;;;;;20.35;44.22;99383.92;2211534;81;21282;-86
2021/03/31 14:40:50;;;;;;;6.20;5.22;;;;;;;20.40;43.86;99384.88;2209370;81;21191;-86
2021/03/31 14:43:52;;;;;;;7.33;5.45;;;;;;;20.43;43.35;99382.30;2208820;81;21322;-85
2021/03/31 14:46:54;;;;;;;5.80;4.97;;;;;;;20.46;42.96;99380.51;2208701;81;21179;-87
2021/03/31 14:49:55;;;;;;;5.33;4.37;;;;;;;20.50;42.86;99375.56;2208984;81;21297;-87
2021/03/31 14:59:46;;;;;;;7.08;4.45;;;;;;;20.51;42.80;99367.87;2209128;81;21164;-87
2021/03/31 15:02:48;;;;;;;7.78;5.33;;;;;;;20.49;43.58;99359.31;2208868;81;21179;-87
2021/03/31 15:05:49;;;;;;;9.73;6.67;;;;;;;20.46;42.90;99357.90;2208938;81;21590;-87
2021/03/31 15:08:51;;;;;;;5.83;4.65;;;;;;;20.44;43.28;99356.80;2208591;81;21282;-83
2021/03/31 15:11:53;;;;;;;10.68;5.67;;;;;;;20.42;43.04;99352.20;2209743;81;21271;-82
2021/03/31 15:14:55;;;;;;;5.78;4.25;;;;;;;20.40;42.93;99346.31;2208972;81;21714;-81
2021/03/31 15:17:57;;;;;;;7.92;5.05;;;;;;;20.36;43.06;99342.99;2208920;81;21179;-86
2021/03/31 15:21:03;;;;;;;4.37;3.90;;;;;;;20.32;42.98;99343.17;2208587;81;21302;-83